Adelanto, CA

2:34 PM PDT on September 20, 2014 (GMT -0700)
El Mirage Airport (99CL) | Change Station
CLOSE
Current Station
Personal Weather Station
Location: Adelanto, CA
Elevation: 2880 ft
Nearby Weather Stations

Elev 2880 ft 34.62 °N, 117.60 °W | Updated 1 minute ago

Partly Cloudy
Partly Cloudy
88.8 °F
Feels Like 86 °F
N
19.9
Wind Variable Wind from SSE
Gusts 28.6 mph

Today
High -- | Low -- °F
--% Chance of Precip.
Yesterday
High -- | Low -- °F
Precip. -- in
6:36 AM 6:49 PM
Waning Crescent, 10% visible
Pressure 29.92 in
Visibility 10.0 miles
Clouds Scattered Clouds 10000 ft
Heat Index 86 °F
Dew Point 50 °F
Humidity 27%
Rainfall 0.00 in
Snow Depth 0 in , 0 in , 0 in
UV 6 out of 12
Pollen 6.80 out of 12
Ozone Good
Flu Activity Not available.
METAR KVCV 202115Z AUTO 19009KT 10SM SCT100 31/08 A2992 RMK AO2

More Conditions Fewer Conditions

Pressure 29.92 in
Visibility 10.0 miles
Clouds Scattered Clouds 10000 ft
Heat Index 86 °F
Dew Point 50 °F
Humidity 27%
Rainfall 0.00 in
Snow Depth 0 in , 0 in , 0 in
UV 6 out of 12
Pollen 6.80 out of 12
Ozone Good
Flu Activity Not available.
METAR KVCV 202115Z AUTO 19009KT 10SM SCT100 31/08 A2992 RMK AO2

More Conditions Fewer Conditions

10-Day Weather Forecast

Almanac

Astronomy

Sep. 20, 2014 Rise Set
Actual Time 6:36 AM PDT 6:49 PM PDT
Civil Twilight 6:11 AM PDT 7:14 PM PDT
Nautical Twilight 5:42 AM PDT 7:44 PM PDT
Astronomical Twilight 5:12 AM PDT 8:13 PM PDT
Moon 3:26 AM PDT 4:50 PM PDT
Length of Visible Light 13h 03m
Length of Day
12h 12m
Tomorrow will be 2m 9s shorter.
Waning Crescent, 10% of the Moon is Illuminated
Today
Waning Crescent
Sep 24
New
Oct 1
First Quarter
Oct 8
Full
Oct 15
Last Quarter

Today's Extremes

State Highs State Lows

Community

WunderPhotos

Upload Photos

1,754,947 photos uploaded!

WunderBlogs® & News

Nearby

Air Quality

  Air Quality AQ Index Pollutant
Yesterday Good
OZONE
Yesterday Good
PM10
Current Good
OZONE
Sunday Good
OZONE
Sunday Good
PM10
Sunday Good
CO
Sunday Good
NO2

Snow Depth

Station Depth Elevation
Burnside Lake 0 in 8139 ft
CSS Lab 0 in 6900 ft
Adin Mountain 0 in 6200 ft
Leavitt Meadows 0 in 7200 ft
Summit Meadow 0 in 9122 ft

Earthquake Activity

City Distance Mag. Time & Date
Inyokern, California 99 miles 3.1 5:33 PM PDT
2014-09-19
Aguanga, California 90 miles 2.5 1:38 AM PDT
2014-09-19
Minimum magnitude displayed is 2.5.

Coastal Water Temperatures

Place Temperature
No Stations Reporting

Nearby Weather Stations